LKMT

Ostrava Leos Janáček Airport

Ostrava, Czech Republic
TAF LKMT 151700Z 1518/1700 04008KT 9999 BKN040 BECMG 1518/1521 5000 BR SCT013 TEMPO 1523/1607 2500 BR BKN013 PROB30 TEMPO 1602/1607 1200 BR BKN007 BECMG 1607/1610 CAVOK
Issued Valid From Valid To
Nov-15 @ 17:00 UTC
(2 hours ago)
Nov-15 @ 18:00 UTC
(59 minutes ago)
Nov-17 @ 00:00 UTC
(-1 days ago)
Nov-15 @ 18:00 to Nov-17 @ 00:00
TAF LKMT 151700Z 1518/1700 04008KT 9999 BKN040
Wind Visibility Clouds
40° at 8 knots 10,000+ meters
  • Broken at 4,000' AGL
Becoming Nov-15 @ 18:00 to Nov-16 @ 07:00
BECMG 1518/1521 5000 BR SCT013
Wind Visibility Clouds Conditions
40° at 8 knots 5,005 meters
  • Scattered at 1,300' AGL
  • Mist
Temporary Nov-15 @ 23:00 to Nov-16 @ 07:00
TEMPO 1523/1607 2500 BR BKN013
Visibility Clouds Conditions
2,494 meters
  • Broken at 1,300' AGL
  • Mist
Temporary  (Probability 30%) Nov-16 @ 02:00 to Nov-16 @ 07:00
PROB30 TEMPO 1602/1607 1200 BR BKN007
Visibility Clouds Conditions
1,207 meters
  • Broken at 700' AGL
  • Mist
Becoming Nov-16 @ 07:00 to Nov-17 @ 00:00
BECMG 1607/1610 CAVOK
Wind Visibility Clouds Conditions
40° at 8 knots 10,000+ meters
  • No significant clouds
TAF LKMT 151700Z 1518/1700 04008KT 9999 BKN040 BECMG 1518/1521 5000 BR SCT013 TEMPO 1523/1607 2500 BR BKN013 PROB30 TEMPO 1602/1607 1200 BR BKN007 BECMG 1607/1610 CAVOK
Issued Nov-15 @ 17:00 UTC
(2 hours ago)
Valid From Nov-15 @ 18:00 UTC
(59 minutes ago)
Valid To Nov-17 @ 00:00 UTC
(-1 days ago)
Nov-15 @ 18:00 - Nov-17 @ 00:00
Wind Visibility
40° at 8 knots 10,000+ meters
Clouds
  • Broken at 4,000' AGL
Becoming Nov-15 @ 18:00 - Nov-16 @ 07:00
Wind Visibility
40° at 8 knots 5,005 meters
Clouds
  • Scattered at 1,300' AGL
Conditions
  • Mist
Temporary Nov-15 @ 23:00 - Nov-16 @ 07:00
Clouds
  • Broken at 1,300' AGL
Conditions
  • Mist
Probability 30% Temporary Nov-16 @ 02:00 - Nov-16 @ 07:00
Clouds
  • Broken at 700' AGL
Conditions
  • Mist
Becoming Nov-16 @ 07:00 - Nov-17 @ 00:00
Wind Visibility
40° at 8 knots 10,000+ meters
Clouds
  • No significant clouds
Conditions